Time;durP1;ratioP1;P1;durP2;ratioP2;P2;SDS_P1;SDS_P2;PMS_P1;PMS_P2;Temp;Humidity;BMP_temperature;BMP_pressure;BME280_temperature;BME280_humidity;BME280_pressure;Samples;Min_cycle;Max_cycle;Signal;HPM_P1;HPM_P2
2022/08/24 00:01:45;;;;;;;4.67;2.50;;;16.60;99.90;;;;;;5050124;28;20500;-54
2022/08/24 00:04:12;;;;;;;3.90;2.67;;;16.60;99.90;;;;;;5049143;28;20482;-54
2022/08/24 00:06:39;;;;;;;4.93;2.10;;;16.60;99.90;;;;;;5050831;28;20462;-55
2022/08/24 00:09:05;;;;;;;2.87;2.20;;;16.60;99.90;;;;;;5053394;28;20468;-53
2022/08/24 00:11:33;;;;;;;2.00;1.87;;;16.60;99.90;;;;;;5050606;28;20465;-53
2022/08/24 00:14:00;;;;;;;2.63;2.13;;;16.60;99.90;;;;;;5052238;28;21029;-54
2022/08/24 00:16:28;;;;;;;4.90;2.80;;;16.60;99.90;;;;;;5051236;28;20458;-55
2022/08/24 00:18:54;;;;;;;2.80;2.27;;;16.60;99.90;;;;;;5053239;28;20605;-54
2022/08/24 00:21:21;;;;;;;3.90;2.83;;;16.50;99.90;;;;;;5047644;28;20462;-53
2022/08/24 00:23:48;;;;;;;5.50;2.90;;;16.60;99.90;;;;;;5049229;28;20501;-54
2022/08/24 00:26:15;;;;;;;11.03;2.43;;;16.50;99.90;;;;;;5047838;28;20462;-54
2022/08/24 00:28:43;;;;;;;2.10;1.90;;;16.50;99.90;;;;;;5054082;28;20942;-53
2022/08/24 00:31:10;;;;;;;3.10;2.50;;;16.50;99.90;;;;;;5050324;28;20458;-54
2022/08/24 00:33:38;;;;;;;3.80;1.70;;;16.50;99.90;;;;;;5051024;28;21020;-54
2022/08/24 00:36:05;;;;;;;3.53;2.20;;;16.40;99.90;;;;;;5046506;28;20457;-52
2022/08/24 00:38:34;;;;;;;3.20;2.40;;;16.40;99.90;;;;;;5051749;28;20545;-54
2022/08/24 00:41:01;;;;;;;5.00;2.70;;;16.30;99.90;;;;;;5048437;28;20913;-53
2022/08/24 00:43:28;;;;;;;6.90;2.40;;;16.30;99.90;;;;;;5050455;28;20469;-55
2022/08/24 00:46:10;;;;;;;6.77;2.80;;;16.30;99.90;;;;;;5049051;28;20462;-54
2022/08/24 00:48:41;;;;;;;5.77;2.53;;;16.20;99.90;;;;;;5053299;28;20462;-54
2022/08/24 00:51:14;;;;;;;3.13;2.83;;;16.20;99.90;;;;;;5048494;28;20489;-53
2022/08/24 00:53:47;;;;;;;8.30;2.77;;;16.20;99.90;;;;;;5048321;28;20921;-54
2022/08/24 00:56:19;;;;;;;3.33;2.33;;;16.20;99.90;;;;;;5048288;28;20560;-53
2022/08/24 00:58:49;;;;;;;2.57;2.37;;;16.10;99.90;;;;;;5050537;28;20861;-54
2022/08/24 01:01:18;;;;;;;3.60;2.20;;;16.10;99.90;;;;;;5048025;28;20492;-53
2022/08/24 01:03:45;;;;;;;2.70;1.90;;;16.10;99.90;;;;;;5043855;28;20991;-53
2022/08/24 01:06:12;;;;;;;3.53;2.00;;;16.10;99.90;;;;;;5049229;28;20465;-54
2022/08/24 01:08:40;;;;;;;2.80;2.37;;;16.00;99.90;;;;;;5050632;28;20852;-53
2022/08/24 01:11:11;;;;;;;2.20;2.00;;;16.00;99.90;;;;;;5048378;28;20476;-53
2022/08/24 01:13:39;;;;;;;2.23;2.00;;;16.00;99.90;;;;;;5048686;28;20496;-53
2022/08/24 01:16:08;;;;;;;2.37;2.17;;;15.90;99.90;;;;;;5050897;28;20498;-53
2022/08/24 01:18:51;;;;;;;2.83;2.60;;;15.90;99.90;;;;;;5048034;28;20512;-53
2022/08/24 01:21:20;;;;;;;6.07;2.90;;;15.90;99.90;;;;;;5050052;28;20458;-54
2022/08/24 01:23:51;;;;;;;4.93;2.27;;;15.80;99.90;;;;;;5049971;28;20559;-54
2022/08/24 01:26:21;;;;;;;5.10;2.60;;;15.90;99.90;;;;;;5047500;28;20503;-53
2022/08/24 01:28:54;;;;;;;5.27;2.57;;;15.80;99.90;;;;;;5046550;28;20490;-54
2022/08/24 01:31:21;;;;;;;2.90;2.63;;;15.80;99.90;;;;;;5049514;28;20461;-53
2022/08/24 01:33:50;;;;;;;3.47;2.43;;;15.80;99.90;;;;;;5045838;28;20842;-53
2022/08/24 01:36:22;;;;;;;3.13;2.53;;;15.70;99.90;;;;;;5047263;28;20461;-53
2022/08/24 01:38:51;;;;;;;3.60;2.27;;;15.70;99.90;;;;;;5049743;28;20489;-54
2022/08/24 01:41:17;;;;;;;3.17;2.53;;;15.70;99.90;;;;;;5049399;28;20489;-54
2022/08/24 01:43:44;;;;;;;2.97;2.43;;;15.60;99.90;;;;;;5048802;28;20492;-53
2022/08/24 01:46:11;;;;;;;5.23;2.77;;;15.60;99.90;;;;;;5043220;28;20512;-53
2022/08/24 01:48:37;;;;;;;5.53;2.50;;;15.60;99.90;;;;;;5048552;28;20520;-54
2022/08/24 01:51:04;;;;;;;3.13;2.60;;;15.60;99.90;;;;;;5048723;28;20935;-53
2022/08/24 01:53:31;;;;;;;2.30;2.20;;;15.50;99.90;;;;;;5051250;28;20879;-54
2022/08/24 01:55:59;;;;;;;2.83;2.10;;;15.50;99.90;;;;;;5046602;28;20461;-54
2022/08/24 01:58:25;;;;;;;4.50;2.20;;;15.50;99.90;;;;;;5049524;28;20518;-53
2022/08/24 02:00:52;;;;;;;3.90;2.30;;;15.50;99.90;;;;;;5046297;28;20834;-54
2022/08/24 02:03:19;;;;;;;4.23;2.03;;;15.50;99.90;;;;;;5047719;28;20998;-54
2022/08/24 02:05:46;;;;;;;5.50;2.07;;;15.40;99.90;;;;;;5049760;28;20462;-53
2022/08/24 02:08:12;;;;;;;2.50;2.30;;;15.50;99.90;;;;;;5050118;28;20462;-53
2022/08/24 02:10:39;;;;;;;2.30;2.20;;;15.40;99.90;;;;;;5045363;28;20458;-53
2022/08/24 02:13:07;;;;;;;4.23;2.10;;;15.40;99.90;;;;;;5048660;28;20517;-54
2022/08/24 02:15:38;;;;;;;9.17;2.10;;;15.40;99.90;;;;;;5046568;28;20489;-53
2022/08/24 02:18:06;;;;;;;4.07;2.30;;;15.40;99.90;;;;;;5047332;28;20548;-54
2022/08/24 02:20:34;;;;;;;1.90;1.80;;;15.40;99.90;;;;;;5048136;28;21222;-54
2022/08/24 02:23:00;;;;;;;4.90;2.30;;;15.30;99.90;;;;;;5050043;28;20497;-54
2022/08/24 02:25:29;;;;;;;2.30;2.10;;;15.30;99.90;;;;;;5049990;28;21218;-53
2022/08/24 02:27:56;;;;;;;4.60;2.10;;;15.30;99.90;;;;;;5050575;28;20545;-54
2022/08/24 02:30:25;;;;;;;3.53;2.57;;;15.20;99.90;;;;;;5048106;28;20457;-54
2022/08/24 02:32:51;;;;;;;3.27;2.33;;;15.20;99.90;;;;;;5050823;28;20916;-53
2022/08/24 02:35:18;;;;;;;3.43;2.07;;;15.20;99.90;;;;;;5046673;28;20470;-54
2022/08/24 02:37:45;;;;;;;3.47;1.93;;;15.20;99.90;;;;;;5050655;28;20490;-53
2022/08/24 02:40:13;;;;;;;2.63;1.97;;;15.20;99.90;;;;;;5050450;28;20484;-53
2022/08/24 02:42:40;;;;;;;5.70;2.53;;;15.20;99.90;;;;;;5048599;28;20474;-53
2022/08/24 02:45:08;;;;;;;5.57;2.90;;;15.20;99.90;;;;;;5043622;28;20458;-54
2022/08/24 02:47:37;;;;;;;3.00;2.63;;;15.10;99.90;;;;;;5047715;28;21045;-54
2022/08/24 02:50:05;;;;;;;4.30;2.50;;;15.10;99.90;;;;;;5049295;28;20489;-54
2022/08/24 02:52:32;;;;;;;4.73;3.20;;;15.20;99.90;;;;;;5048688;28;20485;-53
2022/08/24 02:54:58;;;;;;;3.37;2.30;;;15.20;99.90;;;;;;5043471;28;20458;-55
2022/08/24 02:57:25;;;;;;;2.60;2.40;;;15.10;99.90;;;;;;5050252;28;20508;-54
2022/08/24 02:59:52;;;;;;;2.57;2.33;;;15.10;99.90;;;;;;5047311;28;20466;-53
2022/08/24 03:02:18;;;;;;;3.43;2.07;;;15.00;99.90;;;;;;5047211;28;20962;-53
2022/08/24 03:04:46;;;;;;;7.63;2.27;;;15.10;99.90;;;;;;5042170;28;20517;-52
2022/08/24 03:07:13;;;;;;;2.60;2.40;;;15.10;99.90;;;;;;5049968;28;20494;-53
2022/08/24 03:09:39;;;;;;;2.10;2.00;;;15.10;99.90;;;;;;5048308;28;20535;-53
2022/08/24 03:12:06;;;;;;;4.00;2.40;;;15.00;99.90;;;;;;5048623;28;21012;-53
2022/08/24 03:14:34;;;;;;;2.37;2.17;;;15.10;99.90;;;;;;5045980;28;20509;-53
2022/08/24 03:17:01;;;;;;;2.27;2.17;;;15.00;99.90;;;;;;5046846;28;20864;-53
2022/08/24 03:19:28;;;;;;;3.00;2.17;;;15.10;99.90;;;;;;5048118;28;21012;-52
2022/08/24 03:21:56;;;;;;;5.23;2.57;;;15.00;99.90;;;;;;5048143;28;20553;-52
2022/08/24 03:24:22;;;;;;;2.80;2.60;;;15.00;99.90;;;;;;5046122;28;20489;-52
2022/08/24 03:26:49;;;;;;;2.70;2.53;;;15.00;99.90;;;;;;5046935;28;20876;-50
2022/08/24 03:29:16;;;;;;;7.33;2.37;;;14.90;99.90;;;;;;5039061;28;20462;-50
2022/08/24 03:31:43;;;;;;;5.53;3.03;;;15.00;99.90;;;;;;5048814;28;20515;-52
2022/08/24 03:34:12;;;;;;;3.33;2.93;;;14.90;99.90;;;;;;5047734;28;20489;-53
2022/08/24 03:36:38;;;;;;;4.00;3.10;;;15.00;99.90;;;;;;5045545;28;20462;-52
2022/08/24 03:39:07;;;;;;;5.70;3.87;;;15.00;99.90;;;;;;5044756;28;20547;-52
2022/08/24 03:41:33;;;;;;;7.10;3.80;;;14.90;99.90;;;;;;5047632;28;20512;-51
2022/08/24 03:44:00;;;;;;;8.00;4.53;;;15.00;99.90;;;;;;5046303;28;20497;-53
2022/08/24 03:46:29;;;;;;;11.40;4.80;;;15.00;99.90;;;;;;5046736;28;20489;-54
2022/08/24 03:48:57;;;;;;;8.50;3.80;;;15.00;99.40;;;;;;5042522;28;20462;-54
2022/08/24 03:51:25;;;;;;;6.67;4.13;;;15.00;99.90;;;;;;5044502;28;20493;-54
2022/08/24 03:53:53;;;;;;;6.40;3.53;;;15.00;99.90;;;;;;5049901;28;20535;-54
2022/08/24 03:56:21;;;;;;;9.93;4.40;;;15.00;99.90;;;;;;5044851;28;20567;-54
2022/08/24 03:58:48;;;;;;;10.03;5.17;;;15.00;99.90;;;;;;5047471;28;20466;-53
2022/08/24 04:01:15;;;;;;;9.90;5.23;;;15.10;96.50;;;;;;5047495;28;20486;-53
2022/08/24 04:03:44;;;;;;;9.73;5.83;;;15.10;89.60;;;;;;5045336;28;20514;-54
2022/08/24 04:06:12;;;;;;;8.23;5.60;;;15.20;81.70;;;;;;5048188;28;20462;-54
2022/08/24 04:08:39;;;;;;;10.53;5.00;;;15.20;74.20;;;;;;5043727;28;20490;-53
2022/08/24 04:11:09;;;;;;;8.33;6.00;;;15.20;69.30;;;;;;5047709;28;20522;-53
2022/08/24 04:13:38;;;;;;;10.53;6.37;;;15.20;57.90;;;;;;5047594;28;20594;-54
2022/08/24 04:16:07;;;;;;;8.80;6.60;;;15.20;53.60;;;;;;5045835;28;20468;-53
2022/08/24 04:18:33;;;;;;;12.53;6.63;;;15.20;48.50;;;;;;5045565;28;20458;-53
2022/08/24 04:21:00;;;;;;;9.90;6.63;;;15.20;43.50;;;;;;5043669;28;20952;-53
2022/08/24 04:23:27;;;;;;;18.13;6.47;;;15.20;38.90;;;;;;5046541;28;20575;-54
2022/08/24 04:25:54;;;;;;;11.97;6.80;;;15.20;37.00;;;;;;5048891;28;21009;-53
2022/08/24 04:28:21;;;;;;;10.23;6.00;;;15.30;30.20;;;;;;5047287;28;20462;-58
2022/08/24 04:30:50;;;;;;;16.93;6.27;;;15.30;26.20;;;;;;5041269;28;20511;-53
2022/08/24 04:33:18;;;;;;;11.77;6.40;;;15.30;23.20;;;;;;5046608;28;20489;-53
2022/08/24 04:35:47;;;;;;;8.90;7.23;;;15.30;99.90;;;;;;5047130;28;20547;-54
2022/08/24 04:38:14;;;;;;;11.60;6.47;;;15.40;99.90;;;;;;5047037;28;20489;-52
2022/08/24 04:40:43;;;;;;;58.60;6.20;;;15.40;99.90;;;;;;5044087;28;20524;-57
2022/08/24 04:43:09;;;;;;;32.67;5.40;;;15.50;99.90;;;;;;5046468;28;20474;-54
2022/08/24 04:45:38;;;;;;;23.23;5.37;;;15.50;99.90;;;;;;5038199;28;20493;-54
2022/08/24 04:48:07;;;;;;;10.30;6.80;;;15.50;99.90;;;;;;5052438;28;20495;-52
2022/08/24 04:50:34;;;;;;;18.07;5.27;;;15.60;99.90;;;;;;5054203;28;20465;-53
2022/08/24 04:53:02;;;;;;;24.97;5.70;;;15.60;99.90;;;;;;5054348;28;20477;-50
2022/08/24 04:55:28;;;;;;;5.90;5.10;;;15.60;99.90;;;;;;5054609;28;20552;-50
2022/08/24 04:57:55;;;;;;;10.57;4.97;;;15.60;99.90;;;;;;5054783;28;20478;-50
2022/08/24 05:00:22;;;;;;;13.47;3.80;;;15.70;99.90;;;;;;5052912;28;20527;-50
2022/08/24 05:02:49;;;;;;;4.40;4.10;;;15.70;99.90;;;;;;5039510;28;20482;-51
2022/08/24 05:05:17;;;;;;;8.90;4.60;;;15.70;99.90;;;;;;5051483;28;20544;-50
2022/08/24 05:07:44;;;;;;;24.70;4.17;;;15.70;99.90;;;;;;5052718;28;20466;-51
2022/08/24 05:10:11;;;;;;;10.53;5.00;;;15.80;99.90;;;;;;5049888;28;20462;-51
2022/08/24 05:12:38;;;;;;;25.73;4.70;;;15.80;99.90;;;;;;5050464;28;20481;-51
2022/08/24 05:15:06;;;;;;;10.23;4.07;;;15.80;99.90;;;;;;5041985;28;20607;-53
2022/08/24 05:17:32;;;;;;;25.57;4.10;;;15.90;99.90;;;;;;5051640;28;20461;-53
2022/08/24 05:19:59;;;;;;;41.03;4.40;;;15.90;99.90;;;;;;5049782;28;20555;-52
2022/08/24 05:22:27;;;;;;;11.70;4.50;;;15.90;99.90;;;;;;5047053;28;20507;-53
2022/08/24 05:24:54;;;;;;;20.70;5.13;;;15.90;99.90;;;;;;5051353;28;20478;-53
2022/08/24 05:27:21;;;;;;;6.80;6.20;;;15.90;99.90;;;;;;5051135;28;21005;-53
2022/08/24 05:29:47;;;;;;;9.77;5.43;;;16.00;99.90;;;;;;5050187;28;20469;-53
2022/08/24 05:32:16;;;;;;;8.03;5.97;;;16.10;99.90;;;;;;5047240;28;20839;-52
2022/08/24 05:34:43;;;;;;;13.87;5.20;;;16.00;99.90;;;;;;5049926;28;20520;-52
2022/08/24 05:37:10;;;;;;;6.40;5.80;;;16.10;99.90;;;;;;5051417;28;20465;-52
2022/08/24 05:39:38;;;;;;;6.30;5.20;;;16.10;99.90;;;;;;5048796;28;20466;-53
2022/08/24 05:42:05;;;;;;;14.90;5.90;;;16.20;99.90;;;;;;5049644;28;20494;-53
2022/08/24 05:44:32;;;;;;;12.80;6.60;;;16.20;99.90;;;;;;5048464;28;21006;-52
2022/08/24 05:46:59;;;;;;;7.77;5.97;;;16.30;99.90;;;;;;5045669;28;20457;-52
2022/08/24 05:49:27;;;;;;;21.93;6.70;;;16.30;99.90;;;;;;5049565;28;20548;-52
2022/08/24 05:51:54;;;;;;;8.93;7.23;;;16.40;99.90;;;;;;5051093;28;20512;-52
2022/08/24 05:54:21;;;;;;;17.17;6.00;;;16.40;99.90;;;;;;5049073;28;20583;-53
2022/08/24 05:56:50;;;;;;;20.77;6.30;;;16.40;99.90;;;;;;5051284;28;20834;-52
2022/08/24 05:59:19;;;;;;;9.40;6.00;;;16.50;99.90;;;;;;5050804;28;20460;-52
2022/08/24 06:01:46;;;;;;;6.63;6.03;;;16.50;99.90;;;;;;5048504;28;20512;-50
2022/08/24 06:04:13;;;;;;;16.13;7.57;;;16.50;99.90;;;;;;5049253;28;20478;-51
2022/08/24 06:06:40;;;;;;;11.33;6.60;;;16.60;99.90;;;;;;5051152;28;20466;-52
2022/08/24 06:09:10;;;;;;;9.43;6.00;;;16.60;99.90;;;;;;5046420;28;20841;-50
2022/08/24 06:11:38;;;;;;;11.00;6.60;;;16.60;99.90;;;;;;5049432;28;20461;-51
2022/08/24 06:14:09;;;;;;;10.90;6.87;;;16.70;99.90;;;;;;5041355;28;20524;-52
2022/08/24 06:16:36;;;;;;;15.47;7.00;;;16.70;99.90;;;;;;5047314;28;20454;-51
2022/08/24 06:19:03;;;;;;;8.97;6.83;;;16.80;99.90;;;;;;5046744;28;20549;-51
2022/08/24 06:21:31;;;;;;;7.50;6.63;;;16.80;99.90;;;;;;5045998;28;20463;-50
2022/08/24 06:23:58;;;;;;;8.90;7.10;;;16.90;99.90;;;;;;5046632;28;20517;-52
2022/08/24 06:29:12;;;;;;;11.00;8.00;;;17.00;99.90;;;;;;5039856;28;20506;-51
2022/08/24 06:31:40;;;;;;;13.03;9.27;;;17.10;99.90;;;;;;5048517;28;20868;-52
2022/08/24 06:34:08;;;;;;;14.20;8.97;;;17.10;99.90;;;;;;5047160;28;20522;-50
2022/08/24 06:36:35;;;;;;;13.77;9.00;;;17.20;99.90;;;;;;5045851;28;20481;-51
2022/08/24 06:39:01;;;;;;;18.60;8.87;;;17.20;99.90;;;;;;5041051;28;20551;-50
2022/08/24 06:41:28;;;;;;;18.00;9.93;;;17.30;1.40;;;;;;5064544;28;20437;-50
2022/08/24 06:43:54;;;;;;;14.87;9.00;;;17.30;99.90;;;;;;5054721;28;20513;-51
2022/08/24 06:46:22;;;;;;;13.90;9.47;;;17.40;99.90;;;;;;5045039;28;20975;-51
2022/08/24 06:48:50;;;;;;;18.37;10.10;;;17.40;99.90;;;;;;5050578;28;20466;-50
2022/08/24 06:51:18;;;;;;;17.77;9.80;;;17.50;99.90;;;;;;5048666;28;20469;-51
2022/08/24 06:53:45;;;;;;;18.53;10.13;;;17.60;99.90;;;;;;5044633;28;20517;-49
2022/08/24 06:56:12;;;;;;;18.80;9.90;;;17.70;99.90;;;;;;5045584;28;20485;-51
2022/08/24 06:58:39;;;;;;;29.57;11.70;;;17.70;99.90;;;;;;5047401;28;20525;-50
2022/08/24 07:01:10;;;;;;;18.20;10.13;;;17.70;99.90;;;;;;5047847;28;20466;-50
2022/08/24 07:03:38;;;;;;;19.57;9.60;;;17.80;99.90;;;;;;5044151;28;20482;-51
2022/08/24 07:06:06;;;;;;;23.30;10.67;;;17.80;99.90;;;;;;5041313;28;20500;-51
2022/08/24 07:08:33;;;;;;;23.63;9.73;;;17.90;99.90;;;;;;5048287;28;20453;-50
2022/08/24 07:11:01;;;;;;;19.67;9.30;;;17.90;99.90;;;;;;5049599;28;20470;-51
2022/08/24 07:13:28;;;;;;;19.90;10.80;;;18.00;99.90;;;;;;5050584;28;20602;-51
2022/08/24 07:15:54;;;;;;;17.90;9.17;;;18.10;99.90;;;;;;5050067;28;20466;-51
2022/08/24 07:18:21;;;;;;;18.63;10.10;;;18.20;99.90;;;;;;5047180;28;20461;-50
2022/08/24 07:20:49;;;;;;;18.07;9.53;;;18.20;99.90;;;;;;5048465;28;20489;-51
2022/08/24 07:23:17;;;;;;;17.70;10.03;;;18.30;99.90;;;;;;5049552;28;20585;-50
2022/08/24 07:25:45;;;;;;;12.77;8.97;;;18.40;99.90;;;;;;5051317;28;20442;-51
2022/08/24 07:28:12;;;;;;;19.23;10.17;;;18.50;99.90;;;;;;5050523;28;20852;-51
2022/08/24 07:30:39;;;;;;;15.67;9.37;;;18.60;99.90;;;;;;5046112;28;20486;-50
2022/08/24 07:33:07;;;;;;;16.80;9.80;;;18.70;99.90;;;;;;5046624;28;20485;-50
2022/08/24 07:35:33;;;;;;;14.77;10.17;;;18.80;99.90;;;;;;5047180;28;20491;-51
2022/08/24 07:38:02;;;;;;;22.50;10.30;;;18.90;99.90;;;;;;5048847;28;20510;-50
2022/08/24 07:40:29;;;;;;;17.40;10.10;;;19.00;99.90;;;;;;5049650;28;20466;-50
2022/08/24 07:42:59;;;;;;;17.93;10.70;;;19.10;99.90;;;;;;5048806;28;20749;-51
2022/08/24 07:45:27;;;;;;;17.53;11.00;;;19.10;99.90;;;;;;5043031;28;20561;-51
2022/08/24 07:47:54;;;;;;;18.40;11.60;;;19.20;99.90;;;;;;5049885;28;20463;-50
2022/08/24 07:50:21;;;;;;;22.23;13.17;;;19.20;99.90;;;;;;5048955;28;20464;-50
2022/08/24 07:52:48;;;;;;;24.23;12.30;;;19.30;99.90;;;;;;5046124;28;20485;-51
2022/08/24 07:55:16;;;;;;;23.27;13.93;;;19.40;99.90;;;;;;5050942;28;21123;-50
2022/08/24 07:57:44;;;;;;;26.63;14.70;;;19.40;99.90;;;;;;5042027;28;20497;-50
2022/08/24 08:00:14;;;;;;;22.13;14.17;;;19.50;99.90;;;;;;5049026;28;20457;-50
2022/08/24 08:02:45;;;;;;;20.40;13.30;;;19.50;99.90;;;;;;5048392;28;20904;-51
2022/08/24 08:05:12;;;;;;;21.00;13.27;;;19.50;99.90;;;;;;5050212;28;20523;-51
2022/08/24 08:07:38;;;;;;;23.50;13.57;;;19.60;99.90;;;;;;5046449;28;20959;-50
2022/08/24 08:10:06;;;;;;;29.67;11.80;;;19.50;99.90;;;;;;5045751;28;20515;-51
2022/08/24 08:12:35;;;;;;;25.07;14.23;;;19.60;99.90;;;;;;5053147;28;20442;-51
2022/08/24 08:15:02;;;;;;;20.77;13.47;;;19.60;99.90;;;;;;5054806;28;20544;-51
2022/08/24 08:17:28;;;;;;;18.10;13.17;;;19.70;99.90;;;;;;5054061;28;20527;-50
2022/08/24 08:19:55;;;;;;;22.00;14.13;;;19.70;99.90;;;;;;5053846;28;20858;-50
2022/08/24 08:25:06;;;;;;;23.60;15.37;;;19.80;99.90;;;;;;5050865;28;20472;-52
2022/08/24 08:27:35;;;;;;;24.50;13.97;;;19.90;99.90;;;;;;5053237;28;20446;-51
2022/08/24 08:30:02;;;;;;;28.27;15.07;;;20.00;99.90;;;;;;5052570;28;21168;-51
2022/08/24 08:32:30;;;;;;;23.07;14.03;;;20.10;99.90;;;;;;5050158;28;20503;-51
2022/08/24 08:34:56;;;;;;;25.30;14.50;;;20.10;99.90;;;;;;5052508;28;20480;-51
2022/08/24 08:37:23;;;;;;;27.97;15.47;;;20.20;85.60;;;;;;5049025;28;20547;-51
2022/08/24 08:39:50;;;;;;;24.17;15.00;;;20.30;26.20;;;;;;5052108;28;20493;-51
2022/08/24 08:42:43;;;;;;;27.60;15.30;;;20.30;39.10;;;;;;5049980;28;20493;-51
2022/08/24 08:45:21;;;;;;;20.87;13.37;;;20.40;46.40;;;;;;5047945;28;20454;-51
2022/08/24 08:48:31;;;;;;;25.07;14.63;;;20.40;77.10;;;;;;5049902;28;20523;-51
2022/08/24 08:51:33;;;;;;;20.07;14.17;;;20.50;78.60;;;;;;5030185;28;20533;-51
2022/08/24 08:54:13;;;;;;;20.27;14.50;;;20.50;84.90;;;;;;5052001;28;20477;-51
2022/08/24 08:56:49;;;;;;;23.60;14.30;;;20.50;88.80;;;;;;5052524;28;20461;-52
2022/08/24 08:59:33;;;;;;;23.90;14.47;;;20.50;92.40;;;;;;5051569;28;20465;-52
2022/08/24 09:02:09;;;;;;;25.17;15.13;;;20.50;92.60;;;;;;5048261;28;20458;-51
2022/08/24 09:04:59;;;;;;;23.97;12.80;;;20.60;92.80;;;;;;5048498;28;20477;-53
2022/08/24 09:07:37;;;;;;;20.97;13.47;;;20.60;97.40;;;;;;5051837;28;20457;-52
2022/08/24 09:10:17;;;;;;;21.53;13.43;;;20.70;99.20;;;;;;5053526;28;20884;-51
2022/08/24 09:13:00;;;;;;;21.47;14.20;;;20.70;99.90;;;;;;5050697;28;20477;-53
2022/08/24 09:15:53;;;;;;;24.47;15.00;;;20.70;99.90;;;;;;5053887;28;20518;-52
2022/08/24 09:18:32;;;;;;;23.90;14.07;;;20.70;99.90;;;;;;5052157;28;20476;-52
2022/08/24 09:21:37;;;;;;;20.30;13.70;;;20.80;99.90;;;;;;5045644;28;20497;-52
2022/08/24 09:24:32;;;;;;;16.90;12.70;;;20.80;1.40;;;;;;5050120;28;20995;-53
2022/08/24 09:27:10;;;;;;;19.23;10.80;;;20.90;99.90;;;;;;5046873;28;20539;-53
2022/08/24 09:29:49;;;;;;;18.37;13.77;;;20.90;99.90;;;;;;5052169;28;20480;-53
2022/08/24 09:32:35;;;;;;;13.67;10.43;;;20.90;99.90;;;;;;5047233;28;20846;-52
2022/08/24 09:35:04;;;;;;;13.77;10.47;;;20.90;99.90;;;;;;5045643;28;20480;-52
2022/08/24 09:37:39;;;;;;;12.43;10.30;;;20.90;99.90;;;;;;5049825;28;20466;-52
2022/08/24 09:40:22;;;;;;;18.30;11.33;;;20.90;99.90;;;;;;5049209;28;20506;-51
2022/08/24 09:43:21;;;;;;;16.33;11.83;;;21.00;99.90;;;;;;5050430;28;20846;-52
2022/08/24 09:46:33;;;;;;;18.00;11.73;;;21.00;99.90;;;;;;5050663;28;20505;-53
2022/08/24 09:49:28;;;;;;;16.83;11.77;;;21.10;99.90;;;;;;5052310;28;20466;-53
2022/08/24 09:52:21;;;;;;;18.73;11.10;;;21.10;99.90;;;;;;5038388;28;20453;-52
2022/08/24 09:55:07;;;;;;;20.70;12.93;;;21.20;99.90;;;;;;5051218;28;20982;-52
2022/08/24 09:57:46;;;;;;;15.90;12.07;;;21.20;99.90;;;;;;5051131;28;20461;-52
2022/08/24 10:00:18;;;;;;;19.60;12.40;;;21.30;99.90;;;;;;5041915;28;20485;-52
2022/08/24 10:03:10;;;;;;;21.50;14.00;;;21.30;99.90;;;;;;5042522;28;20470;-52
2022/08/24 10:05:58;;;;;;;17.50;12.93;;;21.40;99.90;;;;;;5040356;28;20481;-52
2022/08/24 10:08:37;;;;;;;21.03;13.00;;;21.40;99.90;;;;;;5050144;28;20489;-52
2022/08/24 10:11:15;;;;;;;22.77;15.60;;;21.40;99.90;;;;;;5051086;28;20496;-53
2022/08/24 10:13:54;;;;;;;22.73;14.80;;;21.40;99.90;;;;;;5050683;28;20477;-52
2022/08/24 10:16:32;;;;;;;21.17;13.37;;;21.40;99.90;;;;;;5046012;28;22703;-52
2022/08/24 10:19:14;;;;;;;21.33;14.53;;;21.50;99.90;;;;;;5044569;28;20450;-52
2022/08/24 10:21:52;;;;;;;21.30;15.53;;;21.50;99.90;;;;;;5050978;28;20464;-52
2022/08/24 10:24:36;;;;;;;20.33;15.57;;;21.40;99.90;;;;;;5045979;28;20486;-50
2022/08/24 10:27:17;;;;;;;20.97;14.40;;;21.50;99.90;;;;;;5049783;28;20521;-51
2022/08/24 10:30:14;;;;;;;26.27;15.30;;;21.60;99.90;;;;;;5048152;28;20523;-51
2022/08/24 10:32:56;;;;;;;23.23;14.87;;;21.60;99.90;;;;;;5049753;28;20565;-50
2022/08/24 10:35:32;;;;;;;21.90;15.57;;;21.60;99.90;;;;;;5050860;28;20477;-51
2022/08/24 10:42:05;;;;;;;23.93;15.47;;;22.20;30.70;;;;;;5031748;28;20443;-51
2022/08/24 10:44:48;;;;;;;24.00;15.00;;;22.50;94.30;;;;;;5050443;28;20500;-51
2022/08/24 10:47:25;;;;;;;19.40;15.30;;;23.00;82.90;;;;;;5045241;28;20465;-51
2022/08/24 10:50:20;;;;;;;19.80;15.13;;;23.40;99.90;;;;;;5051486;28;20430;-51
2022/08/24 10:53:22;;;;;;;22.53;14.83;;;23.50;99.90;;;;;;5043307;28;20489;-51
2022/08/24 10:56:14;;;;;;;18.17;14.07;;;23.50;99.90;;;;;;5041961;28;20572;-51
2022/08/24 10:58:47;;;;;;;21.93;14.97;;;23.40;99.90;;;;;;5050244;28;20863;-49
2022/08/24 11:01:21;;;;;;;25.10;14.57;;;23.30;99.90;;;;;;5048495;28;20466;-50
2022/08/24 11:03:50;;;;;;;19.17;15.10;;;23.40;99.90;;;;;;5048676;28;20477;-50
2022/08/24 11:06:18;;;;;;;22.30;14.13;;;23.40;99.90;;;;;;5047782;28;20457;-50
2022/08/24 11:08:53;;;;;;;21.27;15.60;;;23.40;99.90;;;;;;5031046;28;20446;-50
2022/08/24 11:11:27;;;;;;;21.57;15.17;;;23.50;99.90;;;;;;5044366;28;20489;-50
2022/08/24 11:13:57;;;;;;;22.70;14.13;;;23.60;99.90;;;;;;5048376;28;20482;-51
2022/08/24 11:16:28;;;;;;;18.97;13.10;;;23.90;99.90;;;;;;5049715;28;20489;-51
2022/08/24 11:18:56;;;;;;;14.93;12.67;;;24.20;99.90;;;;;;5041931;28;20458;-50
2022/08/24 11:21:37;;;;;;;25.10;14.10;;;24.40;99.90;;;;;;5045523;28;20504;-51
2022/08/24 11:24:07;;;;;;;16.43;12.67;;;24.50;99.90;;;;;;5035971;28;20993;-50
2022/08/24 11:26:50;;;;;;;17.07;13.10;;;24.50;99.90;;;;;;5049054;28;20966;-50
2022/08/24 11:29:17;;;;;;;17.90;12.83;;;24.70;99.90;;;;;;5046120;28;20461;-51
2022/08/24 11:31:49;;;;;;;21.63;14.10;;;25.00;99.90;;;;;;5042465;28;20862;-51
2022/08/24 11:34:18;;;;;;;18.13;12.37;;;25.00;99.90;;;;;;5050382;28;20486;-50
2022/08/24 11:36:45;;;;;;;18.43;11.93;;;25.00;99.90;;;;;;5035980;28;20541;-50
2022/08/24 11:39:16;;;;;;;23.97;14.93;;;24.90;99.90;;;;;;5049207;28;20907;-51
2022/08/24 11:41:53;;;;;;;24.50;14.63;;;24.80;99.90;;;;;;5050135;28;20484;-52
2022/08/24 11:44:33;;;;;;;20.40;14.50;;;24.80;99.90;;;;;;5050111;28;20547;-51
2022/08/24 11:47:07;;;;;;;18.43;13.30;;;24.70;99.90;;;;;;5042382;28;20910;-51
2022/08/24 11:49:47;;;;;;;18.63;11.90;;;24.70;99.90;;;;;;5042583;28;21040;-51
2022/08/24 11:52:26;;;;;;;18.33;12.17;;;24.70;99.90;;;;;;5042298;28;20462;-51
2022/08/24 11:55:01;;;;;;;19.97;11.83;;;24.60;23.70;;;;;;5046347;28;20475;-51
2022/08/24 11:57:38;;;;;;;14.83;11.40;;;24.60;99.90;;;;;;5044743;28;20514;-51
2022/08/24 12:00:10;;;;;;;15.90;11.30;;;24.60;34.40;;;;;;5045261;28;20458;-51
2022/08/24 12:02:44;;;;;;;18.43;11.47;;;24.60;31.30;;;;;;5045382;28;20477;-52
2022/08/24 12:05:25;;;;;;;13.67;11.03;;;24.50;29.90;;;;;;5039598;28;20489;-52
2022/08/24 12:08:05;;;;;;;17.50;11.40;;;24.40;99.90;;;;;;5044445;28;20469;-50
2022/08/24 12:10:40;;;;;;;13.30;10.70;;;24.20;99.90;;;;;;5046986;28;20457;-51
2022/08/24 12:13:15;;;;;;;19.73;12.20;;;24.10;99.90;;;;;;5044840;28;20967;-51
2022/08/24 12:15:47;;;;;;;23.40;11.80;;;24.10;99.90;;;;;;5046576;28;20505;-51
2022/08/24 12:18:26;;;;;;;13.30;10.90;;;24.00;99.90;;;;;;5047428;28;20466;-52
2022/08/24 12:20:53;;;;;;;22.40;11.50;;;24.20;99.90;;;;;;5045631;28;21002;-51
2022/08/24 12:23:25;;;;;;;13.27;11.37;;;24.50;99.90;;;;;;5044780;28;20539;-52
2022/08/24 12:26:01;;;;;;;22.43;12.00;;;24.70;99.90;;;;;;5044711;28;20551;-51
2022/08/24 12:28:36;;;;;;;19.13;11.50;;;24.70;99.90;;;;;;5044008;28;20852;-51
2022/08/24 12:31:09;;;;;;;15.00;10.80;;;24.70;99.90;;;;;;5049134;28;20449;-52
2022/08/24 12:33:38;;;;;;;16.10;10.93;;;24.50;99.90;;;;;;5050591;28;20485;-52
2022/08/24 12:36:13;;;;;;;15.30;9.33;;;24.40;99.90;;;;;;5050242;28;20477;-50
2022/08/24 12:38:44;;;;;;;17.93;9.30;;;24.30;99.90;;;;;;5049378;28;20492;-52
2022/08/24 12:41:18;;;;;;;13.30;9.93;;;24.20;81.70;;;;;;5050196;28;20923;-51
2022/08/24 12:43:51;;;;;;;12.17;10.10;;;24.20;95.80;;;;;;5049357;28;20531;-51
2022/08/24 12:46:22;;;;;;;13.33;8.70;;;24.10;99.90;;;;;;5042520;28;20509;-51
2022/08/24 12:48:52;;;;;;;15.10;10.03;;;24.20;99.90;;;;;;5050011;28;20461;-51
2022/08/24 12:51:23;;;;;;;16.80;9.20;;;24.20;99.90;;;;;;5049603;28;20948;-51
2022/08/24 12:54:12;;;;;;;11.23;8.87;;;24.20;99.90;;;;;;5050351;28;20489;-51
2022/08/24 12:57:01;;;;;;;12.77;9.77;;;24.20;99.90;;;;;;5050459;28;20494;-51
2022/08/24 12:59:33;;;;;;;12.97;9.40;;;24.20;99.90;;;;;;5047169;28;20518;-51
2022/08/24 13:02:02;;;;;;;12.07;8.80;;;24.10;99.90;;;;;;5053298;28;20437;-50
2022/08/24 13:04:40;;;;;;;11.50;10.30;;;24.10;99.90;;;;;;5053263;28;20477;-51
2022/08/24 13:07:10;;;;;;;15.50;11.10;;;24.20;99.90;;;;;;5053039;28;20458;-51